Time;durP1;ratioP1;P1;durP2;ratioP2;P2;SDS_P1;SDS_P2;PMS_P1;PMS_P2;Temp;Humidity;BMP_temperature;BMP_pressure;BME280_temperature;BME280_humidity;BME280_pressure;Samples;Min_cycle;Max_cycle;Signal;HPM_P1;HPM_P2
2021/11/27 00:00:30;;;;;;;3.08;1.05;;;7.50;72.60;;;;;;5045754;28;20041;-77
2021/11/27 00:02:58;;;;;;;4.88;1.20;;;7.50;72.60;;;;;;5044194;28;20045;-84
2021/11/27 00:05:27;;;;;;;3.47;1.13;;;7.50;72.60;;;;;;5044335;28;20025;-74
2021/11/27 00:07:54;;;;;;;6.53;1.27;;;7.50;72.60;;;;;;5046104;28;20052;-77
2021/11/27 00:10:24;;;;;;;5.03;1.15;;;7.50;72.60;;;;;;5045194;28;20021;-75
2021/11/27 00:12:51;;;;;;;3.42;0.85;;;7.50;72.60;;;;;;5045169;28;20526;-75
2021/11/27 00:15:24;;;;;;;3.00;1.02;;;7.50;72.60;;;;;;5043915;28;20477;-77
2021/11/27 00:17:51;;;;;;;5.15;0.80;;;7.50;72.60;;;;;;5045330;28;20500;-77
2021/11/27 00:20:21;;;;;;;3.63;1.10;;;7.50;72.60;;;;;;5048724;28;20086;-76
2021/11/27 00:22:48;;;;;;;2.83;1.05;;;7.50;72.60;;;;;;5046998;28;20141;-78
2021/11/27 00:25:15;;;;;;;3.00;1.20;;;7.50;72.60;;;;;;5048019;28;20112;-77
2021/11/27 00:27:41;;;;;;;3.40;0.90;;;7.50;72.60;;;;;;5030502;28;20033;-79
2021/11/27 00:30:13;;;;;;;3.53;0.60;;;7.50;72.60;;;;;;5047505;28;20633;-77
2021/11/27 00:32:39;;;;;;;1.60;1.00;;;7.50;72.60;;;;;;5048729;28;20372;-78
2021/11/27 00:35:06;;;;;;;2.17;1.05;;;7.60;72.70;;;;;;5048837;28;20029;-78
2021/11/27 00:37:32;;;;;;;4.10;0.82;;;7.60;72.70;;;;;;5030386;28;20029;-81
2021/11/27 00:39:58;;;;;;;1.20;0.65;;;7.60;72.70;;;;;;5048402;28;20492;-76
2021/11/27 00:42:24;;;;;;;1.98;0.82;;;7.60;72.60;;;;;;5047552;28;20033;-77
2021/11/27 00:44:50;;;;;;;2.13;0.65;;;7.60;72.60;;;;;;5047055;28;20033;-82
2021/11/27 00:47:17;;;;;;;3.40;0.88;;;7.60;72.50;;;;;;5048565;28;20039;-80
2021/11/27 00:49:43;;;;;;;2.35;0.75;;;7.70;72.60;;;;;;5048247;28;20082;-79
2021/11/27 00:52:09;;;;;;;3.33;0.65;;;7.70;72.60;;;;;;5047656;28;20124;-85
2021/11/27 00:54:35;;;;;;;2.22;0.93;;;7.70;72.60;;;;;;5028436;28;20061;-80
2021/11/27 00:57:01;;;;;;;2.15;0.77;;;7.70;72.50;;;;;;5044896;28;20469;-76
2021/11/27 00:59:27;;;;;;;2.42;1.23;;;7.70;72.50;;;;;;5046974;28;20029;-79
2021/11/27 01:01:53;;;;;;;3.92;0.93;;;7.70;72.50;;;;;;5047606;28;20033;-80
2021/11/27 01:04:19;;;;;;;1.30;0.50;;;7.70;72.50;;;;;;5047458;28;20041;-80
2021/11/27 01:06:45;;;;;;;3.53;0.45;;;7.70;72.40;;;;;;5048376;28;20029;-76
2021/11/27 01:09:13;;;;;;;4.07;0.75;;;7.70;72.40;;;;;;5028824;28;20041;-76
2021/11/27 01:11:46;;;;;;;2.33;0.50;;;7.70;72.40;;;;;;5030135;28;20473;-82
2021/11/27 01:14:20;;;;;;;2.15;0.57;;;7.70;72.40;;;;;;5042989;28;20048;-77
2021/11/27 01:16:49;;;;;;;2.08;0.73;;;7.70;72.40;;;;;;5048870;28;20041;-79
2021/11/27 01:19:17;;;;;;;2.55;0.63;;;7.70;72.40;;;;;;5049287;28;20136;-78
2021/11/27 01:21:48;;;;;;;1.60;0.63;;;7.70;72.30;;;;;;5049199;28;20021;-85
2021/11/27 01:24:16;;;;;;;1.25;0.55;;;7.70;72.30;;;;;;5050249;28;20128;-84
2021/11/27 01:26:43;;;;;;;2.72;0.52;;;7.70;72.30;;;;;;5049573;28;20036;-84
2021/11/27 01:29:10;;;;;;;4.45;0.77;;;7.70;72.40;;;;;;5046070;28;20040;-76
2021/11/27 01:31:38;;;;;;;0.70;0.32;;;7.60;72.20;;;;;;5045955;28;20088;-76
2021/11/27 01:34:05;;;;;;;1.90;0.45;;;7.70;72.40;;;;;;5046855;28;20052;-76
2021/11/27 01:36:32;;;;;;;1.48;0.63;;;7.60;72.20;;;;;;5047514;28;20021;-76
2021/11/27 01:38:58;;;;;;;1.98;1.05;;;7.60;72.20;;;;;;5026504;28;20083;-75
2021/11/27 01:41:25;;;;;;;1.75;0.80;;;7.60;72.20;;;;;;5042688;28;20029;-76
2021/11/27 01:43:51;;;;;;;2.33;0.50;;;7.60;72.20;;;;;;5046255;28;20033;-76
2021/11/27 01:46:18;;;;;;;0.90;0.77;;;7.60;72.20;;;;;;5046094;28;20078;-76
2021/11/27 01:48:46;;;;;;;2.60;0.50;;;7.60;72.20;;;;;;5046329;28;20035;-85
2021/11/27 01:51:16;;;;;;;2.85;0.50;;;7.60;72.20;;;;;;5029252;28;20029;-76
2021/11/27 01:53:48;;;;;;;1.50;0.73;;;7.50;72.10;;;;;;5045167;28;20041;-74
2021/11/27 01:56:18;;;;;;;1.90;0.47;;;7.50;72.10;;;;;;5045914;28;20316;-74
2021/11/27 01:58:46;;;;;;;1.08;0.30;;;7.50;72.10;;;;;;5045199;28;20029;-75
2021/11/27 02:01:20;;;;;;;1.05;0.40;;;7.50;72.10;;;;;;5045597;28;20079;-74
2021/11/27 02:03:47;;;;;;;1.45;0.50;;;7.50;72.10;;;;;;5045234;28;20033;-74
2021/11/27 02:06:19;;;;;;;3.22;0.55;;;7.50;72.10;;;;;;5029956;28;20044;-74
2021/11/27 02:08:49;;;;;;;1.95;0.70;;;7.50;72.10;;;;;;5046726;28;20123;-75
2021/11/27 02:11:30;;;;;;;2.70;0.52;;;7.50;72.10;;;;;;5045374;28;20059;-81
2021/11/27 02:13:58;;;;;;;2.40;0.80;;;7.40;71.90;;;;;;5046549;28;20036;-77
2021/11/27 02:16:24;;;;;;;4.00;0.55;;;7.50;72.10;;;;;;5047213;28;20166;-88
2021/11/27 02:18:51;;;;;;;1.75;0.47;;;7.40;71.90;;;;;;5046861;28;20040;-79
2021/11/27 02:21:20;;;;;;;4.32;0.50;;;7.50;72.20;;;;;;5046432;28;20480;-85
2021/11/27 02:23:48;;;;;;;3.33;0.60;;;7.40;72.00;;;;;;5029408;28;20052;-77
2021/11/27 02:26:17;;;;;;;3.58;0.88;;;7.40;72.00;;;;;;5029448;28;20060;-74
2021/11/27 02:28:53;;;;;;;4.13;0.65;;;7.40;72.50;;;;;;5045353;28;20070;-74
2021/11/27 02:31:21;;;;;;;1.95;0.55;;;7.40;72.00;;;;;;5039596;28;20125;-74
2021/11/27 02:33:48;;;;;;;4.35;0.82;;;7.40;72.00;;;;;;5030223;28;20128;-75
2021/11/27 02:36:14;;;;;;;3.00;0.60;;;7.40;72.00;;;;;;5028331;28;20033;-75
2021/11/27 02:38:41;;;;;;;2.05;0.82;;;7.40;71.90;;;;;;5041147;28;20040;-75
2021/11/27 02:41:09;;;;;;;2.97;0.90;;;7.40;71.90;;;;;;5029805;28;20039;-76
2021/11/27 02:43:35;;;;;;;3.20;0.68;;;7.40;71.90;;;;;;5029994;28;20040;-75
2021/11/27 02:46:02;;;;;;;5.57;0.90;;;7.40;71.90;;;;;;5047334;28;20029;-74
2021/11/27 02:48:28;;;;;;;2.20;0.60;;;7.40;71.90;;;;;;5049883;28;20179;-74
2021/11/27 02:50:55;;;;;;;4.05;1.25;;;7.40;71.90;;;;;;5050745;28;20060;-76
2021/11/27 02:53:21;;;;;;;5.63;1.00;;;7.40;71.90;;;;;;5049232;28;20069;-75
2021/11/27 02:55:48;;;;;;;3.20;0.88;;;7.40;71.90;;;;;;5049446;28;20029;-74
2021/11/27 02:58:15;;;;;;;3.55;0.90;;;7.30;71.70;;;;;;5050830;28;20491;-74
2021/11/27 03:00:44;;;;;;;6.53;1.23;;;7.40;71.80;;;;;;5033721;28;20528;-81
2021/11/27 03:03:11;;;;;;;4.15;1.10;;;7.40;71.80;;;;;;5049293;28;20029;-75
2021/11/27 03:05:38;;;;;;;2.20;0.73;;;7.40;71.80;;;;;;5049539;28;20056;-77
2021/11/27 03:08:05;;;;;;;2.60;0.75;;;7.40;71.80;;;;;;5049750;28;20415;-76
2021/11/27 03:10:31;;;;;;;1.92;0.80;;;7.40;71.80;;;;;;5049595;28;20107;-75
2021/11/27 03:12:57;;;;;;;5.10;1.35;;;7.40;71.70;;;;;;5049495;28;20045;-78
2021/11/27 03:15:23;;;;;;;4.13;1.02;;;7.40;71.70;;;;;;5049856;28;20029;-78
2021/11/27 03:17:49;;;;;;;4.78;1.00;;;7.40;71.70;;;;;;5050120;28;20480;-79
2021/11/27 03:20:18;;;;;;;4.68;1.10;;;7.40;71.70;;;;;;5049824;28;20032;-79
2021/11/27 03:22:45;;;;;;;2.75;0.88;;;7.40;71.70;;;;;;5033165;28;20032;-80
2021/11/27 03:25:12;;;;;;;1.83;0.60;;;7.40;71.60;;;;;;5049511;28;20029;-75
2021/11/27 03:27:42;;;;;;;2.55;0.85;;;7.40;71.60;;;;;;5049635;28;20033;-81
2021/11/27 03:30:12;;;;;;;3.40;0.90;;;7.40;71.60;;;;;;5048981;28;20087;-76
2021/11/27 03:32:40;;;;;;;4.97;1.00;;;7.40;71.60;;;;;;5032917;28;20170;-81
2021/11/27 03:35:16;;;;;;;4.53;1.00;;;7.40;71.60;;;;;;5048941;28;20084;-76
2021/11/27 03:37:46;;;;;;;2.97;0.80;;;7.30;71.40;;;;;;5049201;28;20035;-76
2021/11/27 03:40:16;;;;;;;3.45;0.80;;;7.30;71.40;;;;;;5049673;28;20427;-78
2021/11/27 03:42:43;;;;;;;5.22;0.90;;;7.40;71.60;;;;;;5049470;28;20025;-81
2021/11/27 03:45:13;;;;;;;3.92;1.20;;;7.30;71.30;;;;;;5049913;28;20503;-76
2021/11/27 03:47:59;;;;;;;2.60;1.23;;;7.30;71.30;;;;;;5049242;28;20068;-75
2021/11/27 03:50:40;;;;;;;2.90;0.85;;;7.30;71.30;;;;;;5049473;28;20059;-76
2021/11/27 03:53:14;;;;;;;2.33;0.82;;;7.30;71.30;;;;;;5051531;28;20037;-80
2021/11/27 03:55:40;;;;;;;4.43;1.25;;;7.30;71.30;;;;;;5054058;28;20114;-87
2021/11/27 03:58:06;;;;;;;5.70;1.38;;;7.30;71.30;;;;;;5053604;28;20029;-80
2021/11/27 04:00:33;;;;;;;2.50;0.88;;;7.30;71.30;;;;;;5054596;28;20551;-78
2021/11/27 04:03:01;;;;;;;3.20;0.82;;;7.30;71.20;;;;;;5036989;28;20027;-78
2021/11/27 04:05:29;;;;;;;3.42;0.95;;;7.30;71.20;;;;;;5052280;28;20071;-76
2021/11/27 04:07:57;;;;;;;4.63;1.75;;;7.30;71.30;;;;;;5052149;28;20075;-76
2021/11/27 04:10:25;;;;;;;5.03;0.98;;;7.30;71.20;;;;;;5053301;28;20045;-82
2021/11/27 04:12:52;;;;;;;4.18;0.93;;;7.30;71.20;;;;;;5053765;28;20079;-79
2021/11/27 04:15:18;;;;;;;3.60;0.93;;;7.30;71.30;;;;;;5037333;28;20033;-85
2021/11/27 04:17:45;;;;;;;2.05;0.85;;;7.30;71.20;;;;;;5053261;28;20083;-79
2021/11/27 04:20:11;;;;;;;3.65;0.73;;;7.30;71.30;;;;;;5053045;28;20539;-78
2021/11/27 04:22:37;;;;;;;3.33;1.20;;;7.30;71.20;;;;;;5052285;28;20021;-78
2021/11/27 04:25:07;;;;;;;4.38;1.65;;;7.30;71.20;;;;;;5036351;28;20476;-75
2021/11/27 04:27:34;;;;;;;5.57;1.27;;;7.30;71.20;;;;;;5052612;28;20078;-76
2021/11/27 04:30:06;;;;;;;3.10;0.90;;;7.30;71.20;;;;;;5052425;28;20483;-77
2021/11/27 04:32:32;;;;;;;5.88;1.35;;;7.30;71.20;;;;;;5035290;28;20045;-83
2021/11/27 04:35:13;;;;;;;2.65;0.70;;;7.30;71.20;;;;;;5051840;28;20287;-79
2021/11/27 04:37:39;;;;;;;1.80;1.00;;;7.30;71.20;;;;;;5052168;28;20384;-80
2021/11/27 04:40:07;;;;;;;3.15;0.90;;;7.30;71.10;;;;;;5032993;28;20036;-84
2021/11/27 04:42:36;;;;;;;4.75;1.20;;;7.30;71.10;;;;;;5052087;28;20033;-77
2021/11/27 04:45:07;;;;;;;2.83;0.90;;;7.30;71.10;;;;;;5051801;28;20037;-75
2021/11/27 04:47:36;;;;;;;2.92;0.60;;;7.30;71.10;;;;;;5032015;28;20028;-76
2021/11/27 04:50:04;;;;;;;3.95;0.90;;;7.30;71.10;;;;;;5032145;28;20037;-78
2021/11/27 04:52:30;;;;;;;4.65;1.15;;;7.30;71.10;;;;;;5032649;28;20029;-83
2021/11/27 04:54:56;;;;;;;3.53;0.80;;;7.30;71.10;;;;;;5032518;28;20041;-78
2021/11/27 04:57:22;;;;;;;2.95;0.70;;;7.30;71.10;;;;;;5032086;28;20064;-81
2021/11/27 04:59:48;;;;;;;2.70;0.90;;;7.30;71.00;;;;;;5016150;28;20280;-78
2021/11/27 05:02:15;;;;;;;4.28;0.80;;;7.30;71.00;;;;;;5031794;28;20532;-78
2021/11/27 05:04:42;;;;;;;4.80;0.95;;;7.30;71.00;;;;;;5030371;28;20025;-77
2021/11/27 05:07:09;;;;;;;4.03;0.80;;;7.30;70.90;;;;;;5032430;28;20041;-78
2021/11/27 05:09:35;;;;;;;3.22;0.70;;;7.30;70.90;;;;;;5035150;28;20127;-79
2021/11/27 05:12:01;;;;;;;1.42;0.77;;;7.30;70.90;;;;;;5034919;28;20032;-80
2021/11/27 05:14:27;;;;;;;4.47;0.70;;;7.30;70.80;;;;;;5034783;28;20135;-79
2021/11/27 05:16:54;;;;;;;3.25;0.57;;;7.30;70.80;;;;;;5051010;28;20384;-79
2021/11/27 05:19:20;;;;;;;3.67;1.20;;;7.30;70.80;;;;;;5051987;28;20116;-80
2021/11/27 05:21:57;;;;;;;4.63;0.93;;;7.30;70.80;;;;;;5036473;28;20075;-77
2021/11/27 05:24:23;;;;;;;4.28;1.42;;;7.40;70.90;;;;;;5034672;28;20116;-80
2021/11/27 05:27:15;;;;;;;4.13;0.73;;;7.40;70.80;;;;;;5051816;28;20524;-77
2021/11/27 05:29:59;;;;;;;2.42;1.15;;;7.40;70.70;;;;;;5052613;28;20380;-79
2021/11/27 05:35:09;;;;;;;3.33;0.77;;;7.40;70.70;;;;;;5032612;28;20037;-76
2021/11/27 05:37:36;;;;;;;4.28;0.77;;;7.40;70.60;;;;;;5030924;28;20026;-77
2021/11/27 05:40:05;;;;;;;5.45;0.70;;;7.40;70.60;;;;;;5042959;28;20037;-78
2021/11/27 05:42:31;;;;;;;2.67;0.75;;;7.40;70.50;;;;;;5050405;28;20033;-77
2021/11/27 05:44:58;;;;;;;2.20;0.95;;;7.40;70.50;;;;;;5050302;28;20025;-78
2021/11/27 05:47:24;;;;;;;2.53;0.90;;;7.40;70.40;;;;;;5048294;28;20029;-77
2021/11/27 05:49:53;;;;;;;3.25;1.15;;;7.40;70.40;;;;;;5042821;28;20528;-76
2021/11/27 05:52:26;;;;;;;1.20;0.60;;;7.40;70.30;;;;;;5028041;28;20480;-76
2021/11/27 05:54:52;;;;;;;5.32;0.93;;;7.40;70.30;;;;;;5028494;28;20400;-77
2021/11/27 05:57:18;;;;;;;3.35;0.70;;;7.40;70.20;;;;;;5027344;28;20034;-77
2021/11/27 05:59:45;;;;;;;4.95;0.80;;;7.40;70.20;;;;;;5030375;28;20148;-76
2021/11/27 06:02:11;;;;;;;3.75;0.90;;;7.40;70.20;;;;;;5045380;28;20491;-76
2021/11/27 06:04:37;;;;;;;3.17;0.80;;;7.40;70.10;;;;;;5026575;28;20496;-75
2021/11/27 06:07:03;;;;;;;3.00;0.88;;;7.40;70.10;;;;;;5035684;28;20029;-80
2021/11/27 06:09:29;;;;;;;6.72;1.45;;;7.40;70.10;;;;;;5046884;28;20052;-82
2021/11/27 06:11:55;;;;;;;5.85;1.17;;;7.40;70.10;;;;;;5047021;28;20036;-75
2021/11/27 06:14:20;;;;;;;8.07;2.30;;;7.40;70.20;;;;;;5046701;28;20075;-78
2021/11/27 06:16:46;;;;;;;5.75;1.15;;;7.50;70.70;;;;;;5034300;28;20108;-78
2021/11/27 06:19:12;;;;;;;7.20;1.20;;;7.70;71.20;;;;;;5041026;28;20029;-78
2021/11/27 06:21:38;;;;;;;7.47;1.27;;;7.80;71.20;;;;;;5028738;28;20459;-78
2021/11/27 06:24:07;;;;;;;3.95;0.77;;;7.80;71.00;;;;;;5045357;28;20033;-79
2021/11/27 06:26:34;;;;;;;6.28;1.38;;;7.90;71.00;;;;;;5047052;28;20032;-82
2021/11/27 06:29:00;;;;;;;4.10;1.02;;;7.90;70.90;;;;;;5046402;28;20036;-78
2021/11/27 06:31:26;;;;;;;7.82;1.63;;;7.90;70.70;;;;;;5028165;28;20029;-81
2021/11/27 06:33:52;;;;;;;4.93;1.10;;;7.90;70.70;;;;;;5025075;28;20045;-77
2021/11/27 06:36:21;;;;;;;7.38;1.30;;;7.90;70.70;;;;;;5041095;28;20022;-77
2021/11/27 06:38:47;;;;;;;5.53;1.40;;;7.90;70.60;;;;;;5034366;28;20560;-79
2021/11/27 06:41:15;;;;;;;4.20;1.20;;;7.90;70.60;;;;;;5029892;28;20036;-76
2021/11/27 06:43:48;;;;;;;7.20;1.08;;;7.80;70.90;;;;;;5040533;28;20476;-79
2021/11/27 06:46:20;;;;;;;4.43;0.93;;;7.80;70.30;;;;;;5029040;28;20396;-84
2021/11/27 06:48:46;;;;;;;3.25;1.00;;;7.80;70.30;;;;;;5046274;28;20036;-80
2021/11/27 06:51:14;;;;;;;4.07;1.05;;;7.80;70.30;;;;;;5032865;28;20095;-75
2021/11/27 06:53:41;;;;;;;8.88;1.58;;;7.70;70.10;;;;;;5045280;28;20090;-75
2021/11/27 06:56:07;;;;;;;5.28;1.80;;;7.70;70.10;;;;;;5046338;28;20029;-81
2021/11/27 06:58:33;;;;;;;4.25;1.10;;;7.70;70.10;;;;;;5037781;28;20025;-76
2021/11/27 07:01:26;;;;;;;4.38;2.08;;;7.70;70.10;;;;;;5045337;28;20035;-87
2021/11/27 07:04:07;;;;;;;4.88;1.40;;;7.60;70.00;;;;;;5039600;28;20036;-80
2021/11/27 07:06:56;;;;;;;7.50;1.67;;;7.60;70.10;;;;;;5015034;28;20065;-78
2021/11/27 07:09:38;;;;;;;3.92;1.00;;;7.60;70.60;;;;;;5046994;28;20029;-84
2021/11/27 07:12:11;;;;;;;8.20;2.17;;;7.70;71.10;;;;;;5045073;28;20041;-78
2021/11/27 07:14:42;;;;;;;6.53;1.00;;;7.70;71.20;;;;;;5028118;28;20129;-77
2021/11/27 07:17:08;;;;;;;5.13;1.15;;;7.70;71.20;;;;;;5045325;28;20029;-78
2021/11/27 07:19:34;;;;;;;7.78;1.92;;;7.70;71.30;;;;;;5044701;28;20111;-77
2021/11/27 07:22:03;;;;;;;3.90;1.13;;;7.70;71.30;;;;;;5044233;28;20025;-79
2021/11/27 07:24:29;;;;;;;4.43;1.20;;;7.70;71.30;;;;;;5042961;28;20029;-77
2021/11/27 07:26:56;;;;;;;3.40;1.00;;;7.60;71.20;;;;;;5044632;28;20025;-79
2021/11/27 07:29:22;;;;;;;4.20;1.45;;;7.60;71.20;;;;;;5047008;28;20088;-75
2021/11/27 07:31:49;;;;;;;7.10;2.50;;;7.60;71.20;;;;;;5030353;28;20044;-76
2021/11/27 07:34:15;;;;;;;3.67;1.10;;;7.50;71.10;;;;;;5027338;28;20113;-77
2021/11/27 07:36:41;;;;;;;7.55;2.05;;;7.50;71.10;;;;;;5035841;28;20094;-77
2021/11/27 07:39:09;;;;;;;4.13;1.20;;;7.50;71.10;;;;;;5041680;28;20037;-81
2021/11/27 07:41:36;;;;;;;4.30;0.85;;;7.40;71.00;;;;;;5058851;28;20126;-75
2021/11/27 07:44:08;;;;;;;3.50;0.90;;;7.40;71.00;;;;;;5048766;28;20037;-80
2021/11/27 07:46:56;;;;;;;4.82;1.00;;;7.40;71.00;;;;;;5049083;28;20059;-81
2021/11/27 07:49:42;;;;;;;5.47;1.65;;;7.40;71.00;;;;;;4997905;28;20044;-76
2021/11/27 07:52:27;;;;;;;4.35;1.00;;;7.30;70.80;;;;;;5049121;28;20044;-84
2021/11/27 07:54:54;;;;;;;9.52;2.80;;;7.30;70.80;;;;;;5048625;28;20120;-81
2021/11/27 07:57:21;;;;;;;5.03;1.10;;;7.30;70.90;;;;;;5048236;28;20379;-78
2021/11/27 07:59:47;;;;;;;5.10;1.85;;;7.30;70.90;;;;;;5049783;28;20029;-81
2021/11/27 08:02:13;;;;;;;3.50;0.90;;;7.30;70.90;;;;;;5049425;28;20430;-76
2021/11/27 08:04:40;;;;;;;6.05;1.33;;;7.30;70.90;;;;;;5049207;28;20029;-76
2021/11/27 08:07:05;;;;;;;22.02;2.15;;;7.20;70.70;;;;;;5048179;28;20087;-76
2021/11/27 08:09:32;;;;;;;5.00;1.25;;;7.20;70.70;;;;;;5047923;28;20029;-76
2021/11/27 08:11:58;;;;;;;3.63;1.42;;;7.30;70.90;;;;;;5048886;28;20039;-77
2021/11/27 08:14:28;;;;;;;6.25;1.10;;;7.30;70.90;;;;;;5047547;28;20140;-76
2021/11/27 08:16:54;;;;;;;3.55;0.90;;;7.20;70.70;;;;;;5049248;28;20047;-76
2021/11/27 08:19:20;;;;;;;3.58;1.00;;;7.30;70.80;;;;;;5032338;28;20112;-80
2021/11/27 08:21:46;;;;;;;6.32;1.20;;;7.20;70.60;;;;;;5029759;28;20025;-81
2021/11/27 08:24:11;;;;;;;7.40;1.08;;;7.20;70.60;;;;;;5028789;28;20040;-75
2021/11/27 08:26:37;;;;;;;4.97;1.55;;;7.30;70.70;;;;;;5028571;28;20148;-75
2021/11/27 08:29:04;;;;;;;5.40;1.25;;;7.30;70.60;;;;;;5029147;28;20116;-79
2021/11/27 08:31:30;;;;;;;4.65;1.48;;;7.30;70.60;;;;;;5028145;28;20129;-78
2021/11/27 08:33:57;;;;;;;2.83;1.10;;;7.30;70.60;;;;;;5028449;28;20116;-80
2021/11/27 08:36:23;;;;;;;4.80;1.20;;;7.30;70.50;;;;;;5010581;28;20025;-76
2021/11/27 08:38:49;;;;;;;4.03;0.80;;;7.30;70.50;;;;;;5026933;28;20037;-78
2021/11/27 08:41:15;;;;;;;5.10;0.98;;;7.30;70.50;;;;;;5027367;28;20040;-79
2021/11/27 08:43:41;;;;;;;7.93;1.48;;;7.30;70.60;;;;;;5026806;28;20033;-78
2021/11/27 08:46:07;;;;;;;6.85;1.45;;;7.40;71.00;;;;;;5026975;28;20044;-77
2021/11/27 08:48:37;;;;;;;4.88;1.52;;;7.50;71.40;;;;;;5028755;28;20389;-78
2021/11/27 08:51:06;;;;;;;6.38;1.52;;;7.50;71.40;;;;;;5028830;28;20112;-78
2021/11/27 08:53:32;;;;;;;5.43;1.20;;;7.60;71.40;;;;;;5028552;28;20084;-80
2021/11/27 08:55:58;;;;;;;2.53;0.80;;;7.70;71.50;;;;;;5029225;28;20036;-79
2021/11/27 08:58:24;;;;;;;4.45;1.30;;;7.70;71.40;;;;;;5026898;28;20034;-77
2021/11/27 09:00:50;;;;;;;5.20;1.30;;;7.70;71.20;;;;;;5027941;28;20406;-77
2021/11/27 09:03:17;;;;;;;4.15;0.85;;;7.80;71.30;;;;;;5027599;28;20025;-78
2021/11/27 09:05:43;;;;;;;5.20;1.10;;;7.80;71.20;;;;;;5027690;28;20041;-81
2021/11/27 09:08:09;;;;;;;6.68;1.65;;;7.90;71.20;;;;;;5026970;28;20417;-77
2021/11/27 09:10:35;;;;;;;7.72;1.92;;;7.90;71.10;;;;;;5031823;28;20465;-77
2021/11/27 09:13:02;;;;;;;4.75;1.30;;;8.00;71.20;;;;;;5046509;28;20033;-77
2021/11/27 09:15:28;;;;;;;2.83;0.90;;;8.00;71.10;;;;;;5045992;28;20036;-78
2021/11/27 09:17:55;;;;;;;4.68;0.88;;;8.00;71.00;;;;;;5048028;28;20064;-78
2021/11/27 09:20:21;;;;;;;5.57;1.00;;;8.00;70.90;;;;;;5046328;28;20461;-79
2021/11/27 09:22:47;;;;;;;6.95;1.27;;;8.00;70.80;;;;;;5047430;28;20039;-79
2021/11/27 09:25:13;;;;;;;4.70;1.05;;;8.10;70.90;;;;;;5047768;28;20132;-78
2021/11/27 09:27:39;;;;;;;6.18;1.10;;;8.10;70.90;;;;;;5045892;28;20112;-80
2021/11/27 09:30:08;;;;;;;8.05;2.05;;;8.10;70.80;;;;;;5047452;28;20063;-78
2021/11/27 09:32:35;;;;;;;3.13;0.90;;;8.20;70.80;;;;;;5045563;28;20053;-80
2021/11/27 09:35:02;;;;;;;5.95;1.05;;;8.20;70.70;;;;;;5046675;28;20332;-76
2021/11/27 09:37:29;;;;;;;4.60;0.98;;;8.20;70.60;;;;;;5047370;28;20025;-76
2021/11/27 09:39:55;;;;;;;5.55;1.33;;;8.20;70.50;;;;;;5046727;28;20033;-78
2021/11/27 09:42:21;;;;;;;5.53;1.52;;;8.30;70.60;;;;;;5046774;28;20392;-80
2021/11/27 09:44:49;;;;;;;2.75;1.00;;;8.20;70.40;;;;;;5047019;28;20033;-80
2021/11/27 09:47:16;;;;;;;5.70;1.17;;;8.20;70.40;;;;;;5047017;28;20028;-77
2021/11/27 09:49:44;;;;;;;3.47;0.82;;;8.20;70.40;;;;;;5047336;28;20029;-79
2021/11/27 09:52:10;;;;;;;3.58;1.00;;;8.20;70.30;;;;;;5046942;28;20061;-77
2021/11/27 09:54:36;;;;;;;4.22;0.90;;;8.20;70.40;;;;;;5045859;28;20048;-77
2021/11/27 09:57:06;;;;;;;6.45;1.65;;;8.20;70.40;;;;;;5048039;28;20029;-78
2021/11/27 09:59:34;;;;;;;6.25;1.35;;;8.20;70.40;;;;;;5049486;28;20118;-88
2021/11/27 10:02:01;;;;;;;3.58;0.73;;;8.20;70.40;;;;;;5030174;28;20025;-79
2021/11/27 10:04:31;;;;;;;1.70;0.70;;;8.20;70.30;;;;;;5047351;28;20039;-80
2021/11/27 10:06:59;;;;;;;3.35;0.93;;;8.20;70.30;;;;;;5046803;28;20037;-78
2021/11/27 10:09:25;;;;;;;6.18;1.30;;;8.20;70.40;;;;;;5046531;28;20051;-76
2021/11/27 10:11:53;;;;;;;3.03;1.02;;;8.20;70.20;;;;;;5045561;28;20033;-77
2021/11/27 10:14:20;;;;;;;4.28;1.23;;;8.30;70.30;;;;;;5045467;28;20048;-83
2021/11/27 10:16:59;;;;;;;4.10;0.85;;;8.30;70.30;;;;;;5046530;28;20044;-79
2021/11/27 10:19:43;;;;;;;3.58;0.93;;;8.30;70.20;;;;;;5045336;28;20435;-79
2021/11/27 10:22:16;;;;;;;4.65;0.70;;;8.40;70.30;;;;;;5045534;28;20056;-76
2021/11/27 10:24:46;;;;;;;3.17;0.85;;;8.40;70.20;;;;;;5045205;28;20041;-78
2021/11/27 10:27:25;;;;;;;5.00;1.00;;;8.50;70.20;;;;;;5036614;28;20029;-78
2021/11/27 10:30:07;;;;;;;4.60;1.23;;;8.60;70.20;;;;;;5046257;28;20033;-75
2021/11/27 10:32:38;;;;;;;2.55;1.00;;;8.70;70.20;;;;;;5045221;28;20045;-77
2021/11/27 10:35:10;;;;;;;2.85;0.60;;;8.80;70.20;;;;;;5045024;28;20106;-82
2021/11/27 10:37:48;;;;;;;3.67;0.90;;;8.90;70.20;;;;;;5028123;28;20495;-78
2021/11/27 10:40:30;;;;;;;4.55;1.02;;;8.90;70.00;;;;;;5044890;28;20392;-78
2021/11/27 10:42:59;;;;;;;3.97;1.05;;;9.00;70.00;;;;;;5046797;28;20029;-80
2021/11/27 10:45:28;;;;;;;2.42;0.93;;;9.10;70.00;;;;;;5028894;28;20514;-77
2021/11/27 10:48:16;;;;;;;4.47;0.70;;;9.20;70.00;;;;;;5045100;28;20404;-76
2021/11/27 10:50:47;;;;;;;2.90;0.80;;;9.20;69.70;;;;;;5044960;28;20037;-80
2021/11/27 10:53:18;;;;;;;3.85;0.68;;;9.30;69.80;;;;;;5046051;28;20496;-80
2021/11/27 10:55:45;;;;;;;3.58;1.00;;;9.30;69.60;;;;;;5062797;28;20041;-77
2021/11/27 10:58:12;;;;;;;2.25;0.60;;;9.40;69.70;;;;;;5042510;28;20521;-77
2021/11/27 11:00:40;;;;;;;4.03;0.73;;;9.40;69.60;;;;;;5046176;28;20400;-77
2021/11/27 11:03:23;;;;;;;3.92;0.90;;;9.40;69.40;;;;;;5045974;28;20385;-78
2021/11/27 11:05:49;;;;;;;3.53;0.63;;;9.40;69.30;;;;;;5045655;28;20024;-82
2021/11/27 11:08:15;;;;;;;2.42;0.85;;;9.40;69.30;;;;;;5044774;28;20147;-79
2021/11/27 11:10:41;;;;;;;2.65;0.77;;;9.50;69.30;;;;;;5045447;28;20132;-76
2021/11/27 11:13:13;;;;;;;4.32;0.95;;;9.50;69.20;;;;;;5028215;28;20544;-80
2021/11/27 11:15:44;;;;;;;3.28;0.85;;;9.50;69.10;;;;;;5033760;28;20036;-78
2021/11/27 11:18:21;;;;;;;8.20;1.13;;;9.50;68.90;;;;;;5060431;28;20036;-76
2021/11/27 11:20:56;;;;;;;4.28;1.00;;;9.60;69.20;;;;;;5046262;28;20032;-78
2021/11/27 11:23:30;;;;;;;3.63;0.93;;;9.60;69.10;;;;;;5045823;28;20033;-77
2021/11/27 11:25:58;;;;;;;4.55;0.65;;;9.60;69.00;;;;;;5044754;28;20883;-82
2021/11/27 11:28:27;;;;;;;6.28;1.33;;;9.70;69.10;;;;;;5046345;28;20040;-80
2021/11/27 11:31:00;;;;;;;4.35;1.13;;;9.80;69.10;;;;;;5028183;28;20033;-78
2021/11/27 11:33:27;;;;;;;3.90;0.90;;;9.80;68.90;;;;;;5044465;28;20029;-78
2021/11/27 11:35:53;;;;;;;4.78;1.20;;;9.80;68.70;;;;;;5045818;28;20476;-77
2021/11/27 11:38:20;;;;;;;3.15;0.70;;;9.80;68.60;;;;;;5024238;28;20064;-77
2021/11/27 11:40:47;;;;;;;2.80;0.70;;;9.80;68.50;;;;;;5026345;28;20032;-80
2021/11/27 11:43:14;;;;;;;2.17;0.75;;;9.90;68.60;;;;;;5035382;28;20080;-79
2021/11/27 11:45:41;;;;;;;1.60;1.20;;;9.90;68.50;;;;;;5028115;28;20029;-79
2021/11/27 11:48:08;;;;;;;7.28;1.27;;;9.90;68.40;;;;;;5045282;28;20029;-81
2021/11/27 11:50:42;;;;;;;5.15;0.68;;;9.90;68.30;;;;;;5045537;28;20029;-78
2021/11/27 11:53:23;;;;;;;1.75;0.57;;;10.00;68.30;;;;;;5045381;28;20060;-76
2021/11/27 11:55:58;;;;;;;2.55;0.93;;;10.00;68.20;;;;;;5028286;28;20037;-80
2021/11/27 11:58:32;;;;;;;2.75;0.70;;;10.00;68.00;;;;;;5045283;28;20691;-76
2021/11/27 12:01:05;;;;;;;2.83;1.17;;;10.00;67.90;;;;;;5044000;28;20492;-76
2021/11/27 12:03:38;;;;;;;5.30;0.95;;;10.00;67.80;;;;;;5044053;28;20033;-76
2021/11/27 12:06:09;;;;;;;2.92;0.93;;;10.00;67.80;;;;;;5044864;28;20115;-75
2021/11/27 12:09:03;;;;;;;5.18;1.40;;;10.10;67.90;;;;;;5044686;28;20150;-81
2021/11/27 12:11:48;;;;;;;2.90;1.00;;;10.10;67.90;;;;;;5044437;28;20645;-77
2021/11/27 12:14:23;;;;;;;6.72;1.55;;;10.20;68.00;;;;;;5026372;28;20038;-76
2021/11/27 12:17:08;;;;;;;4.35;1.30;;;10.30;68.10;;;;;;5029501;28;20389;-76
2021/11/27 12:19:43;;;;;;;2.75;0.90;;;10.30;67.70;;;;;;5047203;28;20040;-75
2021/11/27 12:22:27;;;;;;;3.47;1.45;;;10.40;67.80;;;;;;5031496;28;20085;-75
2021/11/27 12:25:09;;;;;;;3.35;1.20;;;10.40;67.60;;;;;;5047643;28;20041;-76
2021/11/27 12:28:08;;;;;;;5.70;1.65;;;10.40;67.40;;;;;;5048974;28;20039;-76
2021/11/27 12:30:44;;;;;;;4.90;1.30;;;10.50;67.40;;;;;;5047657;28;20516;-80
2021/11/27 12:33:48;;;;;;;4.53;1.90;;;10.50;67.20;;;;;;5047223;28;20049;-75
2021/11/27 12:36:32;;;;;;;6.22;2.17;;;10.50;66.90;;;;;;5047319;28;20061;-76
2021/11/27 12:39:06;;;;;;;6.15;1.27;;;10.60;66.90;;;;;;5048172;28;20033;-77
2021/11/27 12:41:41;;;;;;;2.63;1.35;;;10.70;66.90;;;;;;5048770;28;20036;-76
2021/11/27 12:44:20;;;;;;;4.13;2.05;;;10.70;66.80;;;;;;5048398;28;20064;-77
2021/11/27 12:46:57;;;;;;;7.70;1.77;;;10.70;66.60;;;;;;5047445;28;20729;-75
2021/11/27 12:49:43;;;;;;;3.88;1.98;;;10.80;66.70;;;;;;5048289;28;20028;-83
2021/11/27 12:52:15;;;;;;;3.08;1.50;;;10.80;66.50;;;;;;5019728;28;20033;-76
2021/11/27 12:54:43;;;;;;;4.72;1.73;;;10.90;66.50;;;;;;5046775;28;20576;-77
2021/11/27 12:57:20;;;;;;;7.90;2.50;;;10.90;66.50;;;;;;5048667;28;20029;-76
2021/11/27 12:59:48;;;;;;;4.05;1.50;;;11.00;66.40;;;;;;5046226;28;20064;-74
2021/11/27 13:02:17;;;;;;;5.72;1.70;;;11.10;66.50;;;;;;5046973;28;20056;-74
2021/11/27 13:04:44;;;;;;;5.60;2.08;;;11.10;66.30;;;;;;5048328;28;20090;-80
2021/11/27 13:07:11;;;;;;;5.55;1.52;;;11.20;66.20;;;;;;5046884;28;20057;-75
2021/11/27 13:09:38;;;;;;;6.15;1.77;;;11.20;66.10;;;;;;5041410;28;20033;-78